sensor_id;sensor_type;location;lat;lon;timestamp;temperature;humidity
23053;DHT22;11694;-36.632;-64.318;2023-01-15T00:02:11;29.40;1.00
23053;DHT22;11694;-36.632;-64.318;2023-01-15T00:04:41;29.30;1.00
23053;DHT22;11694;-36.632;-64.318;2023-01-15T00:07:09;29.30;1.00
23053;DHT22;11694;-36.632;-64.318;2023-01-15T00:09:36;29.30;1.00
23053;DHT22;11694;-36.632;-64.318;2023-01-15T00:12:04;29.30;6.20
23053;DHT22;11694;-36.632;-64.318;2023-01-15T00:14:56;29.20;1.00
23053;DHT22;11694;-36.632;-64.318;2023-01-15T00:17:29;29.20;1.00
23053;DHT22;11694;-36.632;-64.318;2023-01-15T00:19:58;29.20;1.00
23053;DHT22;11694;-36.632;-64.318;2023-01-15T00:22:32;29.20;1.00
23053;DHT22;11694;-36.632;-64.318;2023-01-15T00:24:59;29.20;1.00
23053;DHT22;11694;-36.632;-64.318;2023-01-15T00:27:44;29.10;1.00
23053;DHT22;11694;-36.632;-64.318;2023-01-15T00:30:14;29.10;1.00
23053;DHT22;11694;-36.632;-64.318;2023-01-15T00:32:43;29.00;1.00
23053;DHT22;11694;-36.632;-64.318;2023-01-15T00:35:18;29.00;1.00
23053;DHT22;11694;-36.632;-64.318;2023-01-15T00:37:48;28.90;1.00
23053;DHT22;11694;-36.632;-64.318;2023-01-15T00:40:17;28.70;1.00
23053;DHT22;11694;-36.632;-64.318;2023-01-15T00:42:45;28.60;27.20
23053;DHT22;11694;-36.632;-64.318;2023-01-15T00:45:12;28.40;78.90
23053;DHT22;11694;-36.632;-64.318;2023-01-15T00:47:42;28.10;70.70
23053;DHT22;11694;-36.632;-64.318;2023-01-15T00:50:14;28.00;99.90
23053;DHT22;11694;-36.632;-64.318;2023-01-15T00:52:42;27.80;99.90
23053;DHT22;11694;-36.632;-64.318;2023-01-15T00:55:09;27.80;99.90
23053;DHT22;11694;-36.632;-64.318;2023-01-15T00:57:36;27.70;99.90
23053;DHT22;11694;-36.632;-64.318;2023-01-15T01:00:04;27.80;99.90
23053;DHT22;11694;-36.632;-64.318;2023-01-15T01:02:31;27.80;99.90
23053;DHT22;11694;-36.632;-64.318;2023-01-15T01:04:58;27.90;97.60
23053;DHT22;11694;-36.632;-64.318;2023-01-15T01:07:25;28.00;98.70
23053;DHT22;11694;-36.632;-64.318;2023-01-15T01:09:52;28.00;99.90
23053;DHT22;11694;-36.632;-64.318;2023-01-15T01:12:19;27.90;99.90
23053;DHT22;11694;-36.632;-64.318;2023-01-15T01:14:46;28.00;98.70
23053;DHT22;11694;-36.632;-64.318;2023-01-15T01:17:14;28.00;99.90
23053;DHT22;11694;-36.632;-64.318;2023-01-15T01:19:41;27.50;99.90
23053;DHT22;11694;-36.632;-64.318;2023-01-15T01:22:08;26.90;99.90
23053;DHT22;11694;-36.632;-64.318;2023-01-15T01:24:38;26.80;99.90
23053;DHT22;11694;-36.632;-64.318;2023-01-15T01:27:05;27.00;99.90
23053;DHT22;11694;-36.632;-64.318;2023-01-15T01:29:32;27.20;99.90
23053;DHT22;11694;-36.632;-64.318;2023-01-15T01:31:59;27.30;99.90
23053;DHT22;11694;-36.632;-64.318;2023-01-15T01:34:27;27.30;99.90
23053;DHT22;11694;-36.632;-64.318;2023-01-15T01:36:54;27.30;99.90
23053;DHT22;11694;-36.632;-64.318;2023-01-15T01:39:21;27.30;99.90
23053;DHT22;11694;-36.632;-64.318;2023-01-15T01:41:48;27.30;99.90
23053;DHT22;11694;-36.632;-64.318;2023-01-15T01:47:08;27.40;99.90
23053;DHT22;11694;-36.632;-64.318;2023-01-15T01:49:38;27.30;99.90
23053;DHT22;11694;-36.632;-64.318;2023-01-15T01:52:09;26.90;99.90
23053;DHT22;11694;-36.632;-64.318;2023-01-15T01:54:44;26.70;99.90
23053;DHT22;11694;-36.632;-64.318;2023-01-15T01:57:12;26.50;99.90
23053;DHT22;11694;-36.632;-64.318;2023-01-15T01:59:39;26.50;99.90
23053;DHT22;11694;-36.632;-64.318;2023-01-15T02:02:07;26.50;99.90
23053;DHT22;11694;-36.632;-64.318;2023-01-15T02:04:35;26.50;99.90
23053;DHT22;11694;-36.632;-64.318;2023-01-15T02:07:03;26.60;99.90
23053;DHT22;11694;-36.632;-64.318;2023-01-15T02:09:31;26.60;99.90
23053;DHT22;11694;-36.632;-64.318;2023-01-15T02:12:08;26.60;99.90
23053;DHT22;11694;-36.632;-64.318;2023-01-15T02:15:02;26.50;99.90
23053;DHT22;11694;-36.632;-64.318;2023-01-15T02:26:41;25.70;1.00
23053;DHT22;11694;-36.632;-64.318;2023-01-15T02:29:14;25.60;1.00
23053;DHT22;11694;-36.632;-64.318;2023-01-15T02:31:48;25.40;1.00
23053;DHT22;11694;-36.632;-64.318;2023-01-15T02:34:25;25.50;1.00
23053;DHT22;11694;-36.632;-64.318;2023-01-15T02:37:07;25.80;1.00
23053;DHT22;11694;-36.632;-64.318;2023-01-15T02:39:37;26.10;99.90
23053;DHT22;11694;-36.632;-64.318;2023-01-15T02:42:07;26.30;99.90
23053;DHT22;11694;-36.632;-64.318;2023-01-15T02:44:42;26.30;99.90
23053;DHT22;11694;-36.632;-64.318;2023-01-15T02:47:12;26.30;99.90
23053;DHT22;11694;-36.632;-64.318;2023-01-15T02:49:42;26.40;99.90
23053;DHT22;11694;-36.632;-64.318;2023-01-15T02:52:25;26.30;99.90
23053;DHT22;11694;-36.632;-64.318;2023-01-15T02:54:57;26.30;99.90
23053;DHT22;11694;-36.632;-64.318;2023-01-15T02:57:29;26.20;99.90
23053;DHT22;11694;-36.632;-64.318;2023-01-15T02:59:58;26.10;1.00
23053;DHT22;11694;-36.632;-64.318;2023-01-15T03:02:32;26.00;99.90
23053;DHT22;11694;-36.632;-64.318;2023-01-15T03:05:08;26.00;1.00
23053;DHT22;11694;-36.632;-64.318;2023-01-15T03:07:54;25.90;1.00
23053;DHT22;11694;-36.632;-64.318;2023-01-15T03:10:37;25.90;1.00
23053;DHT22;11694;-36.632;-64.318;2023-01-15T03:13:05;25.80;1.00
23053;DHT22;11694;-36.632;-64.318;2023-01-15T03:15:54;25.80;1.00
23053;DHT22;11694;-36.632;-64.318;2023-01-15T03:18:52;25.70;1.00
23053;DHT22;11694;-36.632;-64.318;2023-01-15T03:21:35;25.70;99.90
23053;DHT22;11694;-36.632;-64.318;2023-01-15T03:24:06;25.70;1.00
23053;DHT22;11694;-36.632;-64.318;2023-01-15T03:26:35;25.70;1.00
23053;DHT22;11694;-36.632;-64.318;2023-01-15T03:29:04;25.70;1.00
23053;DHT22;11694;-36.632;-64.318;2023-01-15T03:31:34;25.70;1.00
23053;DHT22;11694;-36.632;-64.318;2023-01-15T03:34:02;25.70;1.00
23053;DHT22;11694;-36.632;-64.318;2023-01-15T03:36:29;25.80;99.90
23053;DHT22;11694;-36.632;-64.318;2023-01-15T03:38:57;25.80;99.90
23053;DHT22;11694;-36.632;-64.318;2023-01-15T03:41:44;25.90;99.90
23053;DHT22;11694;-36.632;-64.318;2023-01-15T03:49:46;25.80;99.90
23053;DHT22;11694;-36.632;-64.318;2023-01-15T03:57:34;25.90;1.00
23053;DHT22;11694;-36.632;-64.318;2023-01-15T04:02:47;25.90;99.90
23053;DHT22;11694;-36.632;-64.318;2023-01-15T04:05:16;25.90;1.00
23053;DHT22;11694;-36.632;-64.318;2023-01-15T04:07:45;25.80;1.00
23053;DHT22;11694;-36.632;-64.318;2023-01-15T04:10:12;25.80;1.00
23053;DHT22;11694;-36.632;-64.318;2023-01-15T04:12:39;25.70;1.00
23053;DHT22;11694;-36.632;-64.318;2023-01-15T04:15:08;25.60;1.00
23053;DHT22;11694;-36.632;-64.318;2023-01-15T04:17:36;25.60;1.00
23053;DHT22;11694;-36.632;-64.318;2023-01-15T04:20:04;25.50;1.00
23053;DHT22;11694;-36.632;-64.318;2023-01-15T04:22:31;25.50;1.00
23053;DHT22;11694;-36.632;-64.318;2023-01-15T04:24:58;25.40;1.00
23053;DHT22;11694;-36.632;-64.318;2023-01-15T04:27:25;25.30;1.00
23053;DHT22;11694;-36.632;-64.318;2023-01-15T04:29:52;25.30;1.00
23053;DHT22;11694;-36.632;-64.318;2023-01-15T04:32:20;25.20;1.00
23053;DHT22;11694;-36.632;-64.318;2023-01-15T04:34:47;25.10;1.00
23053;DHT22;11694;-36.632;-64.318;2023-01-15T04:37:15;25.10;1.00
23053;DHT22;11694;-36.632;-64.318;2023-01-15T04:39:42;25.00;1.00
23053;DHT22;11694;-36.632;-64.318;2023-01-15T04:42:14;24.80;1.00
23053;DHT22;11694;-36.632;-64.318;2023-01-15T04:44:59;24.80;1.00
23053;DHT22;11694;-36.632;-64.318;2023-01-15T04:47:29;24.70;1.00
23053;DHT22;11694;-36.632;-64.318;2023-01-15T04:49:57;24.70;1.00
23053;DHT22;11694;-36.632;-64.318;2023-01-15T04:52:24;24.60;1.00
23053;DHT22;11694;-36.632;-64.318;2023-01-15T04:54:52;24.60;1.00
23053;DHT22;11694;-36.632;-64.318;2023-01-15T04:57:19;24.50;1.00
23053;DHT22;11694;-36.632;-64.318;2023-01-15T04:59:46;24.50;1.00
23053;DHT22;11694;-36.632;-64.318;2023-01-15T05:02:14;24.50;1.00
23053;DHT22;11694;-36.632;-64.318;2023-01-15T05:04:41;24.50;1.00
23053;DHT22;11694;-36.632;-64.318;2023-01-15T05:07:09;24.50;1.40
23053;DHT22;11694;-36.632;-64.318;2023-01-15T05:09:36;24.40;9.50
23053;DHT22;11694;-36.632;-64.318;2023-01-15T05:12:03;24.40;3.70
23053;DHT22;11694;-36.632;-64.318;2023-01-15T05:14:31;24.30;2.20
23053;DHT22;11694;-36.632;-64.318;2023-01-15T05:16:58;24.30;1.10
23053;DHT22;11694;-36.632;-64.318;2023-01-15T05:19:25;24.20;1.00
23053;DHT22;11694;-36.632;-64.318;2023-01-15T05:21:52;24.20;1.00
23053;DHT22;11694;-36.632;-64.318;2023-01-15T05:24:19;24.20;1.60
23053;DHT22;11694;-36.632;-64.318;2023-01-15T05:26:46;24.10;8.60
23053;DHT22;11694;-36.632;-64.318;2023-01-15T05:29:14;24.10;7.50
23053;DHT22;11694;-36.632;-64.318;2023-01-15T05:31:42;24.00;9.10
23053;DHT22;11694;-36.632;-64.318;2023-01-15T05:34:11;24.00;7.70
23053;DHT22;11694;-36.632;-64.318;2023-01-15T05:36:38;24.00;8.20
23053;DHT22;11694;-36.632;-64.318;2023-01-15T05:39:05;24.00;7.50
23053;DHT22;11694;-36.632;-64.318;2023-01-15T05:41:33;24.00;7.20
23053;DHT22;11694;-36.632;-64.318;2023-01-15T05:44:26;24.00;1.70
23053;DHT22;11694;-36.632;-64.318;2023-01-15T05:46:55;24.00;1.00
23053;DHT22;11694;-36.632;-64.318;2023-01-15T05:49:25;24.10;1.00
23053;DHT22;11694;-36.632;-64.318;2023-01-15T05:51:53;24.00;1.00
23053;DHT22;11694;-36.632;-64.318;2023-01-15T05:54:26;24.10;1.00
23053;DHT22;11694;-36.632;-64.318;2023-01-15T05:56:54;24.10;1.00
23053;DHT22;11694;-36.632;-64.318;2023-01-15T05:59:24;24.00;1.00
23053;DHT22;11694;-36.632;-64.318;2023-01-15T06:01:52;23.90;1.00
23053;DHT22;11694;-36.632;-64.318;2023-01-15T06:04:21;23.90;1.00
23053;DHT22;11694;-36.632;-64.318;2023-01-15T06:06:49;24.00;1.00
23053;DHT22;11694;-36.632;-64.318;2023-01-15T06:09:18;24.00;1.00
23053;DHT22;11694;-36.632;-64.318;2023-01-15T06:11:45;24.00;1.00
23053;DHT22;11694;-36.632;-64.318;2023-01-15T06:14:13;24.00;1.00
23053;DHT22;11694;-36.632;-64.318;2023-01-15T06:16:40;24.10;1.00
23053;DHT22;11694;-36.632;-64.318;2023-01-15T06:19:08;24.10;1.00
23053;DHT22;11694;-36.632;-64.318;2023-01-15T06:21:37;24.10;1.00
23053;DHT22;11694;-36.632;-64.318;2023-01-15T06:24:04;24.10;1.00
23053;DHT22;11694;-36.632;-64.318;2023-01-15T06:26:32;24.00;1.00
23053;DHT22;11694;-36.632;-64.318;2023-01-15T06:28:59;24.00;1.00
23053;DHT22;11694;-36.632;-64.318;2023-01-15T06:31:26;24.00;1.00
23053;DHT22;11694;-36.632;-64.318;2023-01-15T06:33:53;24.00;1.00
23053;DHT22;11694;-36.632;-64.318;2023-01-15T06:36:23;24.00;1.00
23053;DHT22;11694;-36.632;-64.318;2023-01-15T06:38:50;23.90;1.00
23053;DHT22;11694;-36.632;-64.318;2023-01-15T06:41:20;23.90;1.00
23053;DHT22;11694;-36.632;-64.318;2023-01-15T06:44:08;23.80;1.00
23053;DHT22;11694;-36.632;-64.318;2023-01-15T06:46:54;23.80;1.00
23053;DHT22;11694;-36.632;-64.318;2023-01-15T06:49:39;23.80;1.00
23053;DHT22;11694;-36.632;-64.318;2023-01-15T06:52:07;23.70;3.60
23053;DHT22;11694;-36.632;-64.318;2023-01-15T06:54:34;23.70;7.30
23053;DHT22;11694;-36.632;-64.318;2023-01-15T06:57:01;23.60;7.50
23053;DHT22;11694;-36.632;-64.318;2023-01-15T06:59:29;23.50;11.80
23053;DHT22;11694;-36.632;-64.318;2023-01-15T07:01:56;23.50;10.90
23053;DHT22;11694;-36.632;-64.318;2023-01-15T07:04:24;23.40;19.80
23053;DHT22;11694;-36.632;-64.318;2023-01-15T07:06:51;23.40;11.60
23053;DHT22;11694;-36.632;-64.318;2023-01-15T07:09:18;23.40;1.00
23053;DHT22;11694;-36.632;-64.318;2023-01-15T07:11:45;23.50;1.00
23053;DHT22;11694;-36.632;-64.318;2023-01-15T07:14:23;23.50;1.00
23053;DHT22;11694;-36.632;-64.318;2023-01-15T07:16:50;23.50;10.20
23053;DHT22;11694;-36.632;-64.318;2023-01-15T07:19:18;23.60;13.90
23053;DHT22;11694;-36.632;-64.318;2023-01-15T07:21:46;23.60;1.00
23053;DHT22;11694;-36.632;-64.318;2023-01-15T07:24:14;23.60;1.00
23053;DHT22;11694;-36.632;-64.318;2023-01-15T07:26:41;23.70;1.00
23053;DHT22;11694;-36.632;-64.318;2023-01-15T07:29:09;23.70;1.00
23053;DHT22;11694;-36.632;-64.318;2023-01-15T07:31:37;23.70;1.00
23053;DHT22;11694;-36.632;-64.318;2023-01-15T07:34:06;23.80;1.00
23053;DHT22;11694;-36.632;-64.318;2023-01-15T07:36:33;23.70;1.00
23053;DHT22;11694;-36.632;-64.318;2023-01-15T07:39:02;23.80;1.00
23053;DHT22;11694;-36.632;-64.318;2023-01-15T07:41:29;23.70;1.00
23053;DHT22;11694;-36.632;-64.318;2023-01-15T07:44:14;23.70;1.00
23053;DHT22;11694;-36.632;-64.318;2023-01-15T07:46:59;23.80;1.00
23053;DHT22;11694;-36.632;-64.318;2023-01-15T07:49:45;23.80;1.00
23053;DHT22;11694;-36.632;-64.318;2023-01-15T07:52:20;23.70;1.00
23053;DHT22;11694;-36.632;-64.318;2023-01-15T07:54:49;23.60;1.00
23053;DHT22;11694;-36.632;-64.318;2023-01-15T07:57:19;23.60;1.00
23053;DHT22;11694;-36.632;-64.318;2023-01-15T07:59:47;23.50;1.00
23053;DHT22;11694;-36.632;-64.318;2023-01-15T08:02:14;23.30;26.40
23053;DHT22;11694;-36.632;-64.318;2023-01-15T08:04:41;23.00;41.50
23053;DHT22;11694;-36.632;-64.318;2023-01-15T08:07:08;22.80;56.10
23053;DHT22;11694;-36.632;-64.318;2023-01-15T08:09:36;22.50;66.40
23053;DHT22;11694;-36.632;-64.318;2023-01-15T08:12:03;22.30;81.90
23053;DHT22;11694;-36.632;-64.318;2023-01-15T08:14:48;22.10;91.40
23053;DHT22;11694;-36.632;-64.318;2023-01-15T08:17:35;21.60;95.90
23053;DHT22;11694;-36.632;-64.318;2023-01-15T08:20:04;21.30;99.70
23053;DHT22;11694;-36.632;-64.318;2023-01-15T08:22:32;21.00;99.90
23053;DHT22;11694;-36.632;-64.318;2023-01-15T08:24:59;20.80;99.90
23053;DHT22;11694;-36.632;-64.318;2023-01-15T08:27:27;20.60;99.90
23053;DHT22;11694;-36.632;-64.318;2023-01-15T08:29:55;20.50;99.90
23053;DHT22;11694;-36.632;-64.318;2023-01-15T08:32:23;20.30;99.90
23053;DHT22;11694;-36.632;-64.318;2023-01-15T08:34:50;20.10;96.40
23053;DHT22;11694;-36.632;-64.318;2023-01-15T08:37:18;20.00;94.90
23053;DHT22;11694;-36.632;-64.318;2023-01-15T08:39:45;19.90;92.40
23053;DHT22;11694;-36.632;-64.318;2023-01-15T08:42:12;19.80;90.30
23053;DHT22;11694;-36.632;-64.318;2023-01-15T08:44:39;19.70;87.60
23053;DHT22;11694;-36.632;-64.318;2023-01-15T08:47:06;19.70;84.50
23053;DHT22;11694;-36.632;-64.318;2023-01-15T08:49:33;19.60;79.50
23053;DHT22;11694;-36.632;-64.318;2023-01-15T08:52:00;19.50;73.40
23053;DHT22;11694;-36.632;-64.318;2023-01-15T08:54:27;19.40;67.90
23053;DHT22;11694;-36.632;-64.318;2023-01-15T08:56:55;19.40;61.80
23053;DHT22;11694;-36.632;-64.318;2023-01-15T08:59:22;19.40;57.50
23053;DHT22;11694;-36.632;-64.318;2023-01-15T09:01:49;19.30;55.60
23053;DHT22;11694;-36.632;-64.318;2023-01-15T09:04:18;19.30;52.60
23053;DHT22;11694;-36.632;-64.318;2023-01-15T09:06:46;19.30;51.40
23053;DHT22;11694;-36.632;-64.318;2023-01-15T09:09:14;19.20;51.10
23053;DHT22;11694;-36.632;-64.318;2023-01-15T09:11:41;19.20;52.00
23053;DHT22;11694;-36.632;-64.318;2023-01-15T09:14:11;19.10;49.30
23053;DHT22;11694;-36.632;-64.318;2023-01-15T09:16:39;19.10;45.90
23053;DHT22;11694;-36.632;-64.318;2023-01-15T09:19:07;19.00;45.60
23053;DHT22;11694;-36.632;-64.318;2023-01-15T09:21:35;19.00;45.90
23053;DHT22;11694;-36.632;-64.318;2023-01-15T09:24:02;19.00;44.70
23053;DHT22;11694;-36.632;-64.318;2023-01-15T09:26:31;18.90;43.00
23053;DHT22;11694;-36.632;-64.318;2023-01-15T09:28:59;18.90;43.20
23053;DHT22;11694;-36.632;-64.318;2023-01-15T09:31:27;18.90;41.50
23053;DHT22;11694;-36.632;-64.318;2023-01-15T09:33:54;18.90;40.50
23053;DHT22;11694;-36.632;-64.318;2023-01-15T09:36:25;18.80;39.40
23053;DHT22;11694;-36.632;-64.318;2023-01-15T09:38:57;18.80;38.90
23053;DHT22;11694;-36.632;-64.318;2023-01-15T09:41:28;18.80;37.50
23053;DHT22;11694;-36.632;-64.318;2023-01-15T09:55:26;18.70;27.80
23053;DHT22;11694;-36.632;-64.318;2023-01-15T09:57:57;18.60;27.30
23053;DHT22;11694;-36.632;-64.318;2023-01-15T10:00:33;18.60;24.50
23053;DHT22;11694;-36.632;-64.318;2023-01-15T10:06:08;18.60;21.90
23053;DHT22;11694;-36.632;-64.318;2023-01-15T10:08:48;18.60;21.00
23053;DHT22;11694;-36.632;-64.318;2023-01-15T10:13:49;18.50;20.20
23053;DHT22;11694;-36.632;-64.318;2023-01-15T10:16:27;18.50;20.10
23053;DHT22;11694;-36.632;-64.318;2023-01-15T10:18:56;18.50;18.80
23053;DHT22;11694;-36.632;-64.318;2023-01-15T10:24:55;18.50;14.60
23053;DHT22;11694;-36.632;-64.318;2023-01-15T10:27:26;18.50;11.10
23053;DHT22;11694;-36.632;-64.318;2023-01-15T10:32:50;18.70;12.00
23053;DHT22;11694;-36.632;-64.318;2023-01-15T10:40:57;18.60;6.70
23053;DHT22;11694;-36.632;-64.318;2023-01-15T10:43:38;18.60;1.00
23053;DHT22;11694;-36.632;-64.318;2023-01-15T10:46:23;18.70;3.10
23053;DHT22;11694;-36.632;-64.318;2023-01-15T10:48:56;18.60;2.50
23053;DHT22;11694;-36.632;-64.318;2023-01-15T10:51:52;18.60;5.80
23053;DHT22;11694;-36.632;-64.318;2023-01-15T10:54:34;18.50;8.50
23053;DHT22;11694;-36.632;-64.318;2023-01-15T11:00:01;18.60;11.10
23053;DHT22;11694;-36.632;-64.318;2023-01-15T11:02:39;18.60;13.40
23053;DHT22;11694;-36.632;-64.318;2023-01-15T11:05:20;18.60;15.60
23053;DHT22;11694;-36.632;-64.318;2023-01-15T11:07:52;18.70;15.00
23053;DHT22;11694;-36.632;-64.318;2023-01-15T11:10:21;18.80;16.70
23053;DHT22;11694;-36.632;-64.318;2023-01-15T11:12:54;18.90;12.40
23053;DHT22;11694;-36.632;-64.318;2023-01-15T11:15:43;19.00;13.50
23053;DHT22;11694;-36.632;-64.318;2023-01-15T11:18:44;19.20;15.30
23053;DHT22;11694;-36.632;-64.318;2023-01-15T11:21:30;19.40;7.80
23053;DHT22;11694;-36.632;-64.318;2023-01-15T11:23:58;19.50;7.20
23053;DHT22;11694;-36.632;-64.318;2023-01-15T11:26:31;19.80;1.00
23053;DHT22;11694;-36.632;-64.318;2023-01-15T11:29:10;19.90;1.50
23053;DHT22;11694;-36.632;-64.318;2023-01-15T11:31:38;20.10;1.00
23053;DHT22;11694;-36.632;-64.318;2023-01-15T11:34:18;20.20;1.00
23053;DHT22;11694;-36.632;-64.318;2023-01-15T11:37:03;20.30;1.00
23053;DHT22;11694;-36.632;-64.318;2023-01-15T11:39:31;20.20;1.00
23053;DHT22;11694;-36.632;-64.318;2023-01-15T11:42:03;20.40;1.00
23053;DHT22;11694;-36.632;-64.318;2023-01-15T11:44:53;20.70;1.00
23053;DHT22;11694;-36.632;-64.318;2023-01-15T11:47:48;20.90;1.00
23053;DHT22;11694;-36.632;-64.318;2023-01-15T11:50:37;21.20;1.00
23053;DHT22;11694;-36.632;-64.318;2023-01-15T11:53:20;21.00;1.00
23053;DHT22;11694;-36.632;-64.318;2023-01-15T11:56:03;21.30;1.00
23053;DHT22;11694;-36.632;-64.318;2023-01-15T11:58:38;22.10;1.00
23053;DHT22;11694;-36.632;-64.318;2023-01-15T12:01:06;22.50;1.00
23053;DHT22;11694;-36.632;-64.318;2023-01-15T12:03:34;22.60;1.00
23053;DHT22;11694;-36.632;-64.318;2023-01-15T12:06:05;22.50;1.00
23053;DHT22;11694;-36.632;-64.318;2023-01-15T12:08:52;22.60;1.00
23053;DHT22;11694;-36.632;-64.318;2023-01-15T12:11:44;22.60;1.00
23053;DHT22;11694;-36.632;-64.318;2023-01-15T12:22:59;22.50;1.00
23053;DHT22;11694;-36.632;-64.318;2023-01-15T12:28:28;22.70;1.00
23053;DHT22;11694;-36.632;-64.318;2023-01-15T12:31:09;22.70;1.00
23053;DHT22;11694;-36.632;-64.318;2023-01-15T12:33:44;23.60;1.00
23053;DHT22;11694;-36.632;-64.318;2023-01-15T12:36:28;24.00;1.00
23053;DHT22;11694;-36.632;-64.318;2023-01-15T12:39:21;25.20;1.00
23053;DHT22;11694;-36.632;-64.318;2023-01-15T12:42:02;25.40;99.90
23053;DHT22;11694;-36.632;-64.318;2023-01-15T12:44:58;25.30;1.00
23053;DHT22;11694;-36.632;-64.318;2023-01-15T12:52:42;25.90;99.90
23053;DHT22;11694;-36.632;-64.318;2023-01-15T12:55:18;25.60;99.90
23053;DHT22;11694;-36.632;-64.318;2023-01-15T12:57:55;25.90;99.90
23053;DHT22;11694;-36.632;-64.318;2023-01-15T13:05:59;25.80;99.90
23053;DHT22;11694;-36.632;-64.318;2023-01-15T13:11:12;26.40;99.90
23053;DHT22;11694;-36.632;-64.318;2023-01-15T13:13:41;26.60;99.90
23053;DHT22;11694;-36.632;-64.318;2023-01-15T13:19:35;26.40;99.90
23053;DHT22;11694;-36.632;-64.318;2023-01-15T13:22:26;25.90;99.90
23053;DHT22;11694;-36.632;-64.318;2023-01-15T13:28:04;26.80;99.90
23053;DHT22;11694;-36.632;-64.318;2023-01-15T13:33:43;27.70;99.90
23053;DHT22;11694;-36.632;-64.318;2023-01-15T13:36:26;28.00;99.90
23053;DHT22;11694;-36.632;-64.318;2023-01-15T13:38:59;28.70;99.90
23053;DHT22;11694;-36.632;-64.318;2023-01-15T13:41:31;28.20;99.90
23053;DHT22;11694;-36.632;-64.318;2023-01-15T13:44:20;27.70;99.90
23053;DHT22;11694;-36.632;-64.318;2023-01-15T13:47:08;27.80;99.90
23053;DHT22;11694;-36.632;-64.318;2023-01-15T13:49:58;27.80;99.90
23053;DHT22;11694;-36.632;-64.318;2023-01-15T13:52:32;28.00;99.90
23053;DHT22;11694;-36.632;-64.318;2023-01-15T13:55:07;28.30;99.90
23053;DHT22;11694;-36.632;-64.318;2023-01-15T13:57:37;28.50;99.90
23053;DHT22;11694;-36.632;-64.318;2023-01-15T14:00:07;28.20;99.90
23053;DHT22;11694;-36.632;-64.318;2023-01-15T14:02:38;28.00;99.90
23053;DHT22;11694;-36.632;-64.318;2023-01-15T14:05:33;28.20;99.90
23053;DHT22;11694;-36.632;-64.318;2023-01-15T14:08:02;28.70;99.90
23053;DHT22;11694;-36.632;-64.318;2023-01-15T14:10:40;29.10;99.90
23053;DHT22;11694;-36.632;-64.318;2023-01-15T14:13:45;29.60;99.90
23053;DHT22;11694;-36.632;-64.318;2023-01-15T14:29:00;29.60;99.90
23053;DHT22;11694;-36.632;-64.318;2023-01-15T14:34:29;30.40;99.90
23053;DHT22;11694;-36.632;-64.318;2023-01-15T14:39:55;30.60;82.50
23053;DHT22;11694;-36.632;-64.318;2023-01-15T14:42:46;30.00;90.20
23053;DHT22;11694;-36.632;-64.318;2023-01-15T14:45:40;29.50;99.90
23053;DHT22;11694;-36.632;-64.318;2023-01-15T14:48:35;30.20;99.90
23053;DHT22;11694;-36.632;-64.318;2023-01-15T14:51:15;30.20;86.00
23053;DHT22;11694;-36.632;-64.318;2023-01-15T14:53:47;30.00;92.40
23053;DHT22;11694;-36.632;-64.318;2023-01-15T14:56:22;30.10;99.90
23053;DHT22;11694;-36.632;-64.318;2023-01-15T14:58:56;30.00;98.10
23053;DHT22;11694;-36.632;-64.318;2023-01-15T15:01:50;29.90;90.00
23053;DHT22;11694;-36.632;-64.318;2023-01-15T15:06:56;31.40;35.50
23053;DHT22;11694;-36.632;-64.318;2023-01-15T15:12:29;32.20;6.80
23053;DHT22;11694;-36.632;-64.318;2023-01-15T15:20:54;31.00;5.60
23053;DHT22;11694;-36.632;-64.318;2023-01-15T15:23:49;30.40;83.90
23053;DHT22;11694;-36.632;-64.318;2023-01-15T15:26:27;30.50;24.00
23053;DHT22;11694;-36.632;-64.318;2023-01-15T15:29:02;30.50;31.20
23053;DHT22;11694;-36.632;-64.318;2023-01-15T15:31:38;30.80;38.40
23053;DHT22;11694;-36.632;-64.318;2023-01-15T15:36:55;31.20;15.50
23053;DHT22;11694;-36.632;-64.318;2023-01-15T15:39:40;31.50;24.30
23053;DHT22;11694;-36.632;-64.318;2023-01-15T15:42:56;32.20;1.00
23053;DHT22;11694;-36.632;-64.318;2023-01-15T15:45:37;32.20;1.00
23053;DHT22;11694;-36.632;-64.318;2023-01-15T15:48:31;32.10;1.00
23053;DHT22;11694;-36.632;-64.318;2023-01-15T15:51:24;32.10;1.00
23053;DHT22;11694;-36.632;-64.318;2023-01-15T15:54:04;32.10;1.00
23053;DHT22;11694;-36.632;-64.318;2023-01-15T15:56:32;32.20;1.00
23053;DHT22;11694;-36.632;-64.318;2023-01-15T15:59:00;32.40;1.00
23053;DHT22;11694;-36.632;-64.318;2023-01-15T16:01:36;32.40;1.00
23053;DHT22;11694;-36.632;-64.318;2023-01-15T16:04:04;32.40;1.00
23053;DHT22;11694;-36.632;-64.318;2023-01-15T16:06:31;32.80;1.00
23053;DHT22;11694;-36.632;-64.318;2023-01-15T16:08:58;32.90;1.00
23053;DHT22;11694;-36.632;-64.318;2023-01-15T16:11:32;32.70;1.00
23053;DHT22;11694;-36.632;-64.318;2023-01-15T16:14:04;33.00;1.00
23053;DHT22;11694;-36.632;-64.318;2023-01-15T16:16:32;33.00;1.00
23053;DHT22;11694;-36.632;-64.318;2023-01-15T16:19:01;32.90;1.00
23053;DHT22;11694;-36.632;-64.318;2023-01-15T16:21:31;33.00;1.00
23053;DHT22;11694;-36.632;-64.318;2023-01-15T16:24:20;33.10;1.00
23053;DHT22;11694;-36.632;-64.318;2023-01-15T16:27:05;32.90;1.00
23053;DHT22;11694;-36.632;-64.318;2023-01-15T16:29:48;32.90;1.00
23053;DHT22;11694;-36.632;-64.318;2023-01-15T16:32:21;33.20;1.00
23053;DHT22;11694;-36.632;-64.318;2023-01-15T16:34:49;33.20;1.00
23053;DHT22;11694;-36.632;-64.318;2023-01-15T16:37:29;33.30;1.00
23053;DHT22;11694;-36.632;-64.318;2023-01-15T16:39:58;33.50;1.00
23053;DHT22;11694;-36.632;-64.318;2023-01-15T16:42:33;33.40;1.00
23053;DHT22;11694;-36.632;-64.318;2023-01-15T16:45:19;33.40;1.00
23053;DHT22;11694;-36.632;-64.318;2023-01-15T16:48:33;33.50;1.00
23053;DHT22;11694;-36.632;-64.318;2023-01-15T16:53:57;33.40;1.00
23053;DHT22;11694;-36.632;-64.318;2023-01-15T17:01:54;33.40;1.00
23053;DHT22;11694;-36.632;-64.318;2023-01-15T17:04:34;32.80;1.00
23053;DHT22;11694;-36.632;-64.318;2023-01-15T17:07:06;32.70;1.00
23053;DHT22;11694;-36.632;-64.318;2023-01-15T17:09:36;33.10;1.00
23053;DHT22;11694;-36.632;-64.318;2023-01-15T17:12:14;32.90;1.00
23053;DHT22;11694;-36.632;-64.318;2023-01-15T17:14:43;31.90;1.00
23053;DHT22;11694;-36.632;-64.318;2023-01-15T17:17:24;30.80;1.20
23053;DHT22;11694;-36.632;-64.318;2023-01-15T17:19:54;31.00;39.20
23053;DHT22;11694;-36.632;-64.318;2023-01-15T17:22:30;32.40;1.00
23053;DHT22;11694;-36.632;-64.318;2023-01-15T17:24:59;33.30;1.00
23053;DHT22;11694;-36.632;-64.318;2023-01-15T17:27:28;33.80;1.00
23053;DHT22;11694;-36.632;-64.318;2023-01-15T17:29:55;33.80;99.90
23053;DHT22;11694;-36.632;-64.318;2023-01-15T17:32:30;34.00;1.00
23053;DHT22;11694;-36.632;-64.318;2023-01-15T17:34:58;34.60;1.00
23053;DHT22;11694;-36.632;-64.318;2023-01-15T17:37:25;34.80;99.90
23053;DHT22;11694;-36.632;-64.318;2023-01-15T17:39:52;34.50;99.90
23053;DHT22;11694;-36.632;-64.318;2023-01-15T17:42:19;34.40;1.00
23053;DHT22;11694;-36.632;-64.318;2023-01-15T17:44:46;34.60;99.90